Time;durP1;ratioP1;P1;durP2;ratioP2;P2;SDS_P1;SDS_P2;PMS_P1;PMS_P2;Temp;Humidity;BMP_temperature;BMP_pressure;BME280_temperature;BME280_humidity;BME280_pressure;Samples;Min_cycle;Max_cycle;Signal;HPM_P1;HPM_P2
2022/04/05 00:01:27;;;;;;;8.38;1.42;;;7.10;99.90;;;;;;5093909;28;20043;-81
2022/04/05 00:03:53;;;;;;;6.00;1.48;;;7.10;99.90;;;;;;5092092;28;20044;-81
2022/04/05 00:06:19;;;;;;;5.88;1.17;;;7.10;99.90;;;;;;5093808;28;20437;-81
2022/04/05 00:08:45;;;;;;;9.65;1.30;;;7.00;99.90;;;;;;5093951;28;20098;-81
2022/04/05 00:11:10;;;;;;;12.02;1.67;;;7.00;99.90;;;;;;5091903;28;20091;-81
2022/04/05 00:13:38;;;;;;;6.90;1.20;;;7.00;99.90;;;;;;5094052;28;20067;-81
2022/04/05 00:16:04;;;;;;;11.10;2.08;;;7.00;99.90;;;;;;5092289;28;20059;-81
2022/04/05 00:18:30;;;;;;;10.23;1.58;;;6.90;99.90;;;;;;5093062;28;20048;-81
2022/04/05 00:20:56;;;;;;;4.65;1.20;;;6.90;99.90;;;;;;5093591;28;20529;-81
2022/04/05 00:23:22;;;;;;;11.20;1.42;;;6.90;99.90;;;;;;5092766;28;20044;-81
2022/04/05 00:25:48;;;;;;;8.05;1.75;;;6.90;99.90;;;;;;5091652;28;20047;-81
2022/04/05 00:28:13;;;;;;;8.45;1.08;;;6.90;99.90;;;;;;5093133;28;20100;-80
2022/04/05 00:30:39;;;;;;;9.07;1.98;;;6.90;99.90;;;;;;5092623;28;20398;-81
2022/04/05 00:33:05;;;;;;;11.25;1.65;;;6.90;99.90;;;;;;5091819;28;20414;-81
2022/04/05 00:35:31;;;;;;;6.80;1.58;;;6.90;99.90;;;;;;5093850;28;20036;-82
2022/04/05 00:37:57;;;;;;;8.20;1.75;;;6.90;99.90;;;;;;5091640;28;20048;-81
2022/04/05 00:40:25;;;;;;;6.50;1.90;;;6.90;99.90;;;;;;5093747;28;20094;-81
2022/04/05 00:42:51;;;;;;;7.03;1.40;;;6.80;99.90;;;;;;5092091;28;20048;-81
2022/04/05 00:45:20;;;;;;;10.80;1.70;;;6.80;99.90;;;;;;5092024;28;20383;-82
2022/04/05 00:47:49;;;;;;;9.38;1.42;;;6.80;99.90;;;;;;5091981;28;20113;-80
2022/04/05 00:50:19;;;;;;;6.65;1.42;;;6.80;99.90;;;;;;5093745;28;20090;-81
2022/04/05 00:52:45;;;;;;;13.18;1.83;;;6.80;99.90;;;;;;5082927;28;20078;-81
2022/04/05 00:55:12;;;;;;;9.90;1.60;;;6.80;99.90;;;;;;5073332;28;20048;-81
2022/04/05 00:57:41;;;;;;;14.98;1.98;;;6.80;99.90;;;;;;5069062;28;20048;-81
2022/04/05 01:00:08;;;;;;;8.55;1.40;;;6.80;99.90;;;;;;5095134;28;20097;-81
2022/04/05 01:02:38;;;;;;;5.30;1.52;;;6.80;99.90;;;;;;5093602;28;20075;-81
2022/04/05 01:05:06;;;;;;;5.68;1.00;;;6.80;99.90;;;;;;5084812;28;20077;-81
2022/04/05 01:07:34;;;;;;;5.93;1.40;;;6.80;99.90;;;;;;5113048;28;20055;-81
2022/04/05 01:10:00;;;;;;;11.95;2.00;;;6.80;99.90;;;;;;5086967;28;20495;-81
2022/04/05 01:12:26;;;;;;;10.63;1.27;;;6.70;99.90;;;;;;5093316;28;20044;-81
2022/04/05 01:14:52;;;;;;;11.60;1.48;;;6.80;99.90;;;;;;5098788;28;20036;-81
2022/04/05 01:17:18;;;;;;;11.45;2.47;;;6.80;99.90;;;;;;5113795;28;20048;-81
2022/04/05 01:19:47;;;;;;;9.73;2.67;;;6.70;99.90;;;;;;5111845;28;20055;-81
2022/04/05 01:22:13;;;;;;;8.55;1.45;;;6.70;99.90;;;;;;5112889;28;20398;-81
2022/04/05 01:24:39;;;;;;;9.15;1.98;;;6.70;99.90;;;;;;5084525;28;20115;-81
2022/04/05 01:27:08;;;;;;;10.73;1.48;;;6.70;99.90;;;;;;5072563;28;20507;-81
2022/04/05 01:29:34;;;;;;;6.57;1.75;;;6.70;99.90;;;;;;5084830;28;20042;-81
2022/04/05 01:32:06;;;;;;;14.00;1.73;;;6.70;99.90;;;;;;5113472;28;20127;-81
2022/04/05 01:34:34;;;;;;;9.25;1.55;;;6.80;99.90;;;;;;5107549;28;20032;-82
2022/04/05 01:37:04;;;;;;;7.57;1.40;;;6.80;99.90;;;;;;5075299;28;20070;-82
2022/04/05 01:39:32;;;;;;;10.63;1.70;;;6.80;99.90;;;;;;5079308;28;20043;-81
2022/04/05 01:42:00;;;;;;;15.18;1.85;;;6.80;99.90;;;;;;5109284;28;20044;-81
2022/04/05 01:44:28;;;;;;;8.52;1.67;;;6.80;99.90;;;;;;5081413;28;20058;-82
2022/04/05 01:46:54;;;;;;;9.02;1.35;;;6.80;99.90;;;;;;5098981;28;20044;-81
2022/04/05 01:49:20;;;;;;;10.88;1.65;;;6.80;99.90;;;;;;5114424;28;20047;-82
2022/04/05 01:51:46;;;;;;;7.75;1.38;;;6.80;99.90;;;;;;5098506;28;20074;-81
2022/04/05 01:54:15;;;;;;;9.02;1.55;;;6.90;99.90;;;;;;5116744;28;20062;-81
2022/04/05 01:56:43;;;;;;;13.07;1.85;;;6.80;99.90;;;;;;5075489;28;20041;-82
2022/04/05 01:59:11;;;;;;;9.00;1.67;;;6.80;99.90;;;;;;5076263;28;20048;-82
2022/04/05 02:01:37;;;;;;;8.10;1.48;;;6.80;99.90;;;;;;5097462;28;20058;-81
2022/04/05 02:04:03;;;;;;;8.63;2.08;;;6.80;99.90;;;;;;5087124;28;20040;-81
2022/04/05 02:06:29;;;;;;;8.88;2.15;;;6.80;99.90;;;;;;5076374;28;20041;-81
2022/04/05 02:08:55;;;;;;;9.77;1.80;;;6.80;99.90;;;;;;5087015;28;20039;-81
2022/04/05 02:11:21;;;;;;;7.70;1.60;;;6.80;99.90;;;;;;5097492;28;20059;-82
2022/04/05 02:13:46;;;;;;;14.20;2.33;;;6.80;99.90;;;;;;5091423;28;20040;-82
2022/04/05 02:16:12;;;;;;;7.63;1.60;;;6.80;99.90;;;;;;5083314;28;20043;-81
2022/04/05 02:18:38;;;;;;;13.18;1.95;;;6.80;99.90;;;;;;5112644;28;20039;-81
2022/04/05 02:21:05;;;;;;;13.43;1.77;;;6.80;99.90;;;;;;5116617;28;20043;-81
2022/04/05 02:23:31;;;;;;;13.38;1.88;;;6.80;99.90;;;;;;5081729;28;20048;-82
2022/04/05 02:25:57;;;;;;;10.73;2.10;;;6.80;99.90;;;;;;5081362;28;20040;-82
2022/04/05 02:28:23;;;;;;;18.25;2.40;;;6.80;99.90;;;;;;5098244;28;20050;-82
2022/04/05 02:30:49;;;;;;;16.90;5.68;;;6.90;99.90;;;;;;5078537;28;20050;-82
2022/04/05 02:33:15;;;;;;;14.90;2.22;;;6.90;99.90;;;;;;5090786;28;20044;-82
2022/04/05 02:35:43;;;;;;;10.05;2.30;;;6.90;99.90;;;;;;5115887;28;20035;-82
2022/04/05 02:38:09;;;;;;;10.55;2.85;;;6.90;99.90;;;;;;5077251;28;20123;-81
2022/04/05 02:40:35;;;;;;;10.55;3.13;;;6.90;99.90;;;;;;5095927;28;20051;-82
2022/04/05 02:43:02;;;;;;;14.90;2.50;;;6.90;99.90;;;;;;5114114;28;20043;-81
2022/04/05 02:45:27;;;;;;;14.30;3.08;;;6.90;99.90;;;;;;5115147;28;20155;-81
2022/04/05 02:47:53;;;;;;;8.05;2.10;;;6.90;99.90;;;;;;5076760;28;20048;-82
2022/04/05 02:50:19;;;;;;;12.65;2.20;;;6.90;99.90;;;;;;5090376;28;20113;-82
2022/04/05 02:52:47;;;;;;;16.83;2.63;;;6.90;99.90;;;;;;5105197;28;20175;-82
2022/04/05 02:55:15;;;;;;;7.25;2.10;;;6.90;99.90;;;;;;5115698;28;20040;-81
2022/04/05 02:57:42;;;;;;;18.15;2.20;;;7.00;99.90;;;;;;5115837;28;20073;-82
2022/04/05 03:00:11;;;;;;;14.50;2.78;;;6.90;99.90;;;;;;5096762;28;20051;-81
2022/04/05 03:02:38;;;;;;;9.80;1.75;;;7.00;99.90;;;;;;5115770;28;20518;-82
2022/04/05 03:05:06;;;;;;;12.85;2.55;;;7.00;99.90;;;;;;5114652;28;20513;-82
2022/04/05 03:07:32;;;;;;;15.18;2.45;;;6.90;99.90;;;;;;5095513;28;20083;-81
2022/04/05 03:09:58;;;;;;;17.42;2.40;;;7.00;99.90;;;;;;5115339;28;20086;-82
2022/04/05 03:12:25;;;;;;;18.02;2.28;;;7.00;99.90;;;;;;5097071;28;20079;-82
2022/04/05 03:14:51;;;;;;;17.33;2.75;;;7.00;99.90;;;;;;5096215;28;20055;-82
2022/04/05 03:17:17;;;;;;;13.73;2.25;;;7.00;99.90;;;;;;5097053;28;20475;-82
2022/04/05 03:19:43;;;;;;;17.00;2.08;;;7.00;99.90;;;;;;5114622;28;20432;-82
2022/04/05 03:22:09;;;;;;;17.13;2.63;;;7.00;99.90;;;;;;5096932;28;20039;-82
2022/04/05 03:24:35;;;;;;;15.77;2.70;;;7.00;99.90;;;;;;5115465;28;20115;-81
2022/04/05 03:27:01;;;;;;;14.23;3.03;;;7.00;99.90;;;;;;5095826;28;20126;-81
2022/04/05 03:29:28;;;;;;;14.55;2.92;;;7.00;99.90;;;;;;5115109;28;20553;-82
2022/04/05 03:31:54;;;;;;;22.83;2.80;;;7.00;99.90;;;;;;5096896;28;20043;-82
2022/04/05 03:34:20;;;;;;;18.55;2.75;;;7.00;99.90;;;;;;5114337;28;20375;-82
2022/04/05 03:36:46;;;;;;;17.17;3.00;;;7.00;99.90;;;;;;5114541;28;20533;-82
2022/04/05 03:39:13;;;;;;;9.02;1.80;;;7.00;99.90;;;;;;5115043;28;20131;-83
2022/04/05 03:41:42;;;;;;;18.42;2.25;;;7.00;99.90;;;;;;5114072;28;20474;-82
2022/04/05 03:44:08;;;;;;;19.13;2.88;;;7.00;99.90;;;;;;5114562;28;20071;-82
2022/04/05 03:46:34;;;;;;;16.88;2.85;;;7.00;99.90;;;;;;5096712;28;20423;-82
2022/04/05 03:49:00;;;;;;;20.65;2.47;;;7.00;99.90;;;;;;5095207;28;20048;-82
2022/04/05 03:51:26;;;;;;;9.10;1.98;;;7.00;99.90;;;;;;5114458;28;20047;-82
2022/04/05 03:53:54;;;;;;;8.70;2.70;;;7.00;99.90;;;;;;5096215;28;20122;-83
2022/04/05 03:56:20;;;;;;;19.83;2.05;;;7.00;99.90;;;;;;5095796;28;20128;-82
2022/04/05 03:58:47;;;;;;;12.02;2.13;;;7.00;99.90;;;;;;5079726;28;20083;-82
2022/04/05 04:01:13;;;;;;;9.40;1.95;;;6.90;99.90;;;;;;5095981;28;20108;-82
2022/04/05 04:03:39;;;;;;;10.93;2.80;;;6.90;99.90;;;;;;5111759;28;20482;-83
2022/04/05 04:06:04;;;;;;;12.43;2.25;;;6.90;99.90;;;;;;5113363;28;20074;-82
2022/04/05 04:08:30;;;;;;;12.45;2.38;;;6.90;99.90;;;;;;5095088;28;20047;-83
2022/04/05 04:10:56;;;;;;;14.77;2.50;;;6.90;99.90;;;;;;5094460;28;20040;-82
2022/04/05 04:13:22;;;;;;;14.38;2.00;;;6.90;99.90;;;;;;5114443;28;20047;-82
2022/04/05 04:15:48;;;;;;;10.98;2.30;;;6.90;99.90;;;;;;5095750;28;20051;-82
2022/04/05 04:18:14;;;;;;;14.07;2.15;;;6.90;99.90;;;;;;5095504;28;20469;-83
2022/04/05 04:20:42;;;;;;;15.48;2.08;;;6.90;99.90;;;;;;5114094;28;20080;-82
2022/04/05 04:23:09;;;;;;;13.77;1.98;;;6.90;99.90;;;;;;5094777;28;20626;-82
2022/04/05 04:25:37;;;;;;;18.73;4.63;;;6.80;99.90;;;;;;5095678;28;20136;-82
2022/04/05 04:28:07;;;;;;;13.70;1.90;;;6.90;99.90;;;;;;5096245;28;20052;-82
2022/04/05 04:30:34;;;;;;;12.15;1.88;;;6.90;99.90;;;;;;5112797;28;20517;-82
2022/04/05 04:33:00;;;;;;;15.75;2.42;;;6.80;99.90;;;;;;5095806;28;20049;-82
2022/04/05 04:35:27;;;;;;;13.43;2.13;;;6.80;99.90;;;;;;5095470;28;20153;-82
2022/04/05 04:37:53;;;;;;;12.18;3.03;;;6.80;99.90;;;;;;5112535;28;20040;-82
2022/04/05 04:40:19;;;;;;;10.88;2.05;;;6.80;99.90;;;;;;5113221;28;20483;-82
2022/04/05 04:42:45;;;;;;;10.20;2.30;;;6.80;99.90;;;;;;5095852;28;20043;-82
2022/04/05 04:45:12;;;;;;;16.23;2.15;;;6.80;99.90;;;;;;5112651;28;20517;-82
2022/04/05 04:47:38;;;;;;;15.85;2.40;;;6.80;99.90;;;;;;5114036;28;20050;-81
2022/04/05 04:50:06;;;;;;;17.33;2.15;;;6.80;99.90;;;;;;5113399;28;20104;-82
2022/04/05 04:52:32;;;;;;;12.38;2.90;;;6.80;99.90;;;;;;5094825;28;20060;-82
2022/04/05 04:54:57;;;;;;;10.38;1.83;;;6.80;99.90;;;;;;5105889;28;20044;-82
2022/04/05 04:57:25;;;;;;;15.80;2.40;;;6.80;99.90;;;;;;5075474;28;20048;-82
2022/04/05 04:59:51;;;;;;;6.00;1.75;;;6.70;99.90;;;;;;5080241;28;20055;-82
2022/04/05 05:02:18;;;;;;;13.68;2.20;;;6.80;99.90;;;;;;5095440;28;20118;-81
2022/04/05 05:04:43;;;;;;;18.75;2.67;;;6.80;99.90;;;;;;5090954;28;20529;-82
2022/04/05 05:07:09;;;;;;;14.20;2.50;;;6.80;99.90;;;;;;5057931;28;20075;-82
2022/04/05 05:09:35;;;;;;;12.55;2.25;;;6.80;99.90;;;;;;5105551;28;20126;-82
2022/04/05 05:12:01;;;;;;;15.65;2.30;;;6.70;99.90;;;;;;5113811;28;20122;-81
2022/04/05 05:14:27;;;;;;;12.10;2.10;;;6.70;99.90;;;;;;5101876;28;20096;-81
2022/04/05 05:16:56;;;;;;;15.23;2.00;;;6.70;99.90;;;;;;5100769;28;20092;-81
2022/04/05 05:19:22;;;;;;;14.70;2.47;;;6.70;99.90;;;;;;5105321;28;20077;-80
2022/04/05 05:21:48;;;;;;;14.02;2.42;;;6.70;99.90;;;;;;5112932;28;20497;-82
2022/04/05 05:24:14;;;;;;;8.68;2.30;;;6.70;99.90;;;;;;5099566;28;20043;-81
2022/04/05 05:26:39;;;;;;;12.68;2.10;;;6.70;99.90;;;;;;5106745;28;20156;-81
2022/04/05 05:29:05;;;;;;;10.10;1.88;;;6.70;99.90;;;;;;5097216;28;20176;-81
2022/04/05 05:31:31;;;;;;;7.88;2.25;;;6.70;99.90;;;;;;5097251;28;20039;-81
2022/04/05 05:33:57;;;;;;;10.90;2.47;;;6.70;99.90;;;;;;5096320;28;20148;-81
2022/04/05 05:36:23;;;;;;;9.18;2.40;;;6.70;99.90;;;;;;5095920;28;20036;-82
2022/04/05 05:38:52;;;;;;;6.25;1.92;;;6.70;99.90;;;;;;5090219;28;20413;-82
2022/04/05 05:41:18;;;;;;;11.38;1.65;;;6.70;99.90;;;;;;5083703;28;20135;-82
2022/04/05 05:43:45;;;;;;;10.63;2.40;;;6.70;99.90;;;;;;5098990;28;20164;-83
2022/04/05 05:46:12;;;;;;;9.88;2.00;;;6.80;99.90;;;;;;5095467;28;20048;-82
2022/04/05 05:48:39;;;;;;;14.55;2.20;;;6.70;99.90;;;;;;5094906;28;20070;-82
2022/04/05 05:51:05;;;;;;;8.98;1.70;;;6.70;99.90;;;;;;5082779;28;20059;-82
2022/04/05 05:53:32;;;;;;;9.30;1.95;;;6.80;99.90;;;;;;5116226;28;20051;-81
2022/04/05 05:55:58;;;;;;;8.77;2.03;;;6.70;99.90;;;;;;5097771;28;20050;-81
2022/04/05 05:58:24;;;;;;;11.98;2.08;;;6.70;99.90;;;;;;5116722;28;20039;-79
2022/04/05 06:00:51;;;;;;;10.35;2.20;;;6.80;99.90;;;;;;5117028;28;20044;-80
2022/04/05 06:03:17;;;;;;;13.13;2.00;;;6.80;99.90;;;;;;5097946;28;20036;-80
2022/04/05 06:05:43;;;;;;;10.40;1.88;;;6.80;99.90;;;;;;5092022;28;20043;-81
2022/04/05 06:08:10;;;;;;;7.53;1.90;;;6.80;99.90;;;;;;5092841;28;20482;-81
2022/04/05 06:10:36;;;;;;;12.60;2.17;;;6.80;99.90;;;;;;5115236;28;20375;-81
2022/04/05 06:13:03;;;;;;;10.25;2.00;;;6.80;99.90;;;;;;5116304;28;20044;-81
2022/04/05 06:15:29;;;;;;;10.95;2.22;;;6.80;99.90;;;;;;5097677;28;20055;-81
2022/04/05 06:17:57;;;;;;;13.48;2.20;;;6.80;99.90;;;;;;5097885;28;20509;-81
2022/04/05 06:20:27;;;;;;;8.85;2.00;;;6.90;99.90;;;;;;5098105;28;20171;-81
2022/04/05 06:22:55;;;;;;;9.05;2.10;;;6.90;99.90;;;;;;5115330;28;20100;-81
2022/04/05 06:25:26;;;;;;;10.77;2.15;;;7.00;99.90;;;;;;5115227;28;20112;-81
2022/04/05 06:27:54;;;;;;;7.15;1.88;;;7.00;99.90;;;;;;5115834;28;20035;-81
2022/04/05 06:30:20;;;;;;;10.52;2.15;;;7.00;99.90;;;;;;5115154;28;20043;-81
2022/04/05 06:32:50;;;;;;;14.80;2.67;;;7.00;99.90;;;;;;5098014;28;20127;-81
2022/04/05 06:35:16;;;;;;;8.98;1.80;;;7.00;99.90;;;;;;5115647;28;20051;-81
2022/04/05 06:37:45;;;;;;;11.57;2.30;;;7.10;99.90;;;;;;5096946;28;20051;-81
2022/04/05 06:40:13;;;;;;;11.85;2.40;;;7.10;99.90;;;;;;5115390;28;20043;-81
2022/04/05 06:42:49;;;;;;;11.93;2.60;;;7.10;99.90;;;;;;5115269;28;20152;-82
2022/04/05 06:45:19;;;;;;;7.50;2.13;;;7.10;99.90;;;;;;5096533;28;20043;-81
2022/04/05 06:47:47;;;;;;;11.02;2.53;;;7.20;99.90;;;;;;5097535;28;20437;-81
2022/04/05 06:50:14;;;;;;;10.55;2.13;;;7.30;99.90;;;;;;5114450;28;20441;-81
2022/04/05 06:52:41;;;;;;;9.07;1.98;;;7.30;99.90;;;;;;5080286;28;20123;-82
2022/04/05 06:55:09;;;;;;;8.40;2.58;;;7.30;99.90;;;;;;5094924;28;20407;-82
2022/04/05 06:57:35;;;;;;;8.65;1.88;;;7.30;99.90;;;;;;5060116;28;20036;-82
2022/04/05 07:00:03;;;;;;;5.70;1.95;;;7.30;99.90;;;;;;5076451;28;20040;-81
2022/04/05 07:02:28;;;;;;;8.30;1.85;;;7.40;99.90;;;;;;5073519;28;20044;-82
2022/04/05 07:04:54;;;;;;;9.10;2.00;;;7.40;99.90;;;;;;5077833;28;20047;-82
2022/04/05 07:07:20;;;;;;;7.10;1.85;;;7.40;99.90;;;;;;5074845;28;20044;-81
2022/04/05 07:09:46;;;;;;;12.43;2.22;;;7.40;99.90;;;;;;5094355;28;20097;-82
2022/04/05 07:12:11;;;;;;;5.75;1.70;;;7.40;99.90;;;;;;5075978;28;20510;-82
2022/04/05 07:14:37;;;;;;;10.38;1.77;;;7.40;99.90;;;;;;5095003;28;20054;-82
2022/04/05 07:17:03;;;;;;;12.38;2.20;;;7.50;99.90;;;;;;5076830;28;20086;-82
2022/04/05 07:19:29;;;;;;;12.40;2.67;;;7.40;99.90;;;;;;5075738;28;20047;-82
2022/04/05 07:21:55;;;;;;;9.88;1.67;;;7.50;99.90;;;;;;5094741;28;20044;-82
2022/04/05 07:24:21;;;;;;;7.68;1.80;;;7.50;99.90;;;;;;5076145;28;20471;-82
2022/04/05 07:26:47;;;;;;;9.38;1.95;;;7.50;99.90;;;;;;5074287;28;20052;-82
2022/04/05 07:29:12;;;;;;;10.30;2.13;;;7.60;99.90;;;;;;5076168;28;20051;-82
2022/04/05 07:31:38;;;;;;;5.00;1.38;;;7.60;99.90;;;;;;5070630;28;20182;-82
2022/04/05 07:34:04;;;;;;;8.85;2.03;;;7.60;99.90;;;;;;5084266;28;20044;-83
2022/04/05 07:36:31;;;;;;;3.30;1.08;;;7.60;99.90;;;;;;5094358;28;20104;-82
2022/04/05 07:38:57;;;;;;;7.60;1.30;;;7.60;99.90;;;;;;5075787;28;20044;-83
2022/04/05 07:41:24;;;;;;;9.30;1.88;;;7.60;99.90;;;;;;5093273;28;20028;-83
2022/04/05 07:43:49;;;;;;;9.48;1.58;;;7.60;99.90;;;;;;5076056;28;20059;-83
2022/04/05 07:46:15;;;;;;;10.35;1.88;;;7.60;99.90;;;;;;5093891;28;20044;-83
2022/04/05 07:48:41;;;;;;;9.00;1.92;;;7.60;99.90;;;;;;5089603;28;20110;-82
2022/04/05 07:51:08;;;;;;;6.53;1.60;;;7.70;99.90;;;;;;5076315;28;20039;-82
2022/04/05 07:53:34;;;;;;;10.10;2.72;;;7.70;99.90;;;;;;5113852;28;20081;-83
2022/04/05 07:56:00;;;;;;;7.22;1.85;;;7.70;99.90;;;;;;5095845;28;20049;-82
2022/04/05 07:58:26;;;;;;;4.75;1.58;;;7.70;99.90;;;;;;5114622;28;20410;-83
2022/04/05 08:00:52;;;;;;;5.07;1.20;;;7.80;99.90;;;;;;5095600;28;20039;-82
2022/04/05 08:03:18;;;;;;;6.72;1.80;;;7.80;99.90;;;;;;5113535;28;20048;-83
2022/04/05 08:05:44;;;;;;;2.58;1.33;;;7.90;99.90;;;;;;5113979;28;20050;-82
2022/04/05 08:08:10;;;;;;;12.95;1.88;;;7.90;99.90;;;;;;5113512;28;20036;-83
2022/04/05 08:10:36;;;;;;;8.27;2.20;;;7.90;99.90;;;;;;5114174;28;20047;-82
2022/04/05 08:13:02;;;;;;;6.53;1.60;;;7.90;99.90;;;;;;5095736;28;20372;-82
2022/04/05 08:15:28;;;;;;;5.57;1.63;;;7.90;99.90;;;;;;5094407;28;20052;-83
2022/04/05 08:17:54;;;;;;;10.55;2.08;;;7.90;99.90;;;;;;5113825;28;20044;-83
2022/04/05 08:20:20;;;;;;;5.80;1.52;;;8.00;99.90;;;;;;5095808;28;20096;-83
2022/04/05 08:22:47;;;;;;;7.10;2.22;;;8.00;99.90;;;;;;5113525;28;20410;-83
2022/04/05 08:25:16;;;;;;;7.18;1.30;;;8.20;99.90;;;;;;5095675;28;20100;-85
2022/04/05 08:27:46;;;;;;;5.32;1.23;;;8.20;99.90;;;;;;5113777;28;20055;-83
2022/04/05 08:30:15;;;;;;;3.70;1.13;;;8.30;99.90;;;;;;5113135;28;20044;-83
2022/04/05 08:32:43;;;;;;;9.20;1.67;;;8.30;99.90;;;;;;5095466;28;20075;-84
2022/04/05 08:35:14;;;;;;;5.07;1.15;;;8.40;99.90;;;;;;5114040;28;20044;-83
2022/04/05 08:37:41;;;;;;;5.93;1.13;;;8.40;99.90;;;;;;5094999;28;20395;-83
2022/04/05 08:40:08;;;;;;;4.00;1.25;;;8.60;99.90;;;;;;5114016;28;20039;-84
2022/04/05 08:42:35;;;;;;;5.82;1.13;;;8.60;99.90;;;;;;5095165;28;20057;-84
2022/04/05 08:45:04;;;;;;;4.03;0.80;;;8.70;99.90;;;;;;5112993;28;20075;-84
2022/04/05 08:47:31;;;;;;;6.93;1.27;;;8.70;99.90;;;;;;5113557;28;20089;-84
2022/04/05 08:49:58;;;;;;;5.22;1.65;;;8.60;99.90;;;;;;5113236;28;20052;-84
2022/04/05 08:52:23;;;;;;;5.70;1.63;;;8.70;99.90;;;;;;5094392;28;20039;-84
2022/04/05 08:54:49;;;;;;;4.53;1.20;;;8.70;99.90;;;;;;5113717;28;20120;-84
2022/04/05 08:57:15;;;;;;;4.28;0.93;;;8.70;99.90;;;;;;5094383;28;20043;-84
2022/04/05 08:59:41;;;;;;;4.45;1.00;;;8.70;99.90;;;;;;5095278;28;20052;-84
2022/04/05 09:02:07;;;;;;;1.95;1.10;;;8.70;99.90;;;;;;5095075;28;20093;-84
2022/04/05 09:04:33;;;;;;;4.72;1.10;;;8.70;99.90;;;;;;5094895;28;20056;-84
2022/04/05 09:07:22;;;;;;;4.25;1.25;;;8.60;99.90;;;;;;5113377;28;20421;-84
2022/04/05 09:10:13;;;;;;;3.70;1.10;;;8.70;99.90;;;;;;5095077;28;20498;-84
2022/04/05 09:12:40;;;;;;;6.43;0.88;;;8.70;99.90;;;;;;5112505;28;20047;-84
2022/04/05 09:15:24;;;;;;;5.35;1.30;;;8.70;99.90;;;;;;5113581;28;20486;-84
2022/04/05 09:17:50;;;;;;;3.80;1.10;;;8.70;99.90;;;;;;5075004;28;20111;-84
2022/04/05 09:20:18;;;;;;;2.88;0.70;;;8.70;99.90;;;;;;5086445;28;20036;-84
2022/04/05 09:22:44;;;;;;;6.05;1.10;;;8.70;99.90;;;;;;5078337;28;20052;-84
2022/04/05 09:25:12;;;;;;;3.50;1.25;;;8.70;99.90;;;;;;5095381;28;20398;-84
2022/04/05 09:28:05;;;;;;;3.45;1.50;;;8.80;99.90;;;;;;5094675;28;20068;-85
2022/04/05 09:30:31;;;;;;;5.05;1.35;;;8.80;99.90;;;;;;5090717;28;20079;-84
2022/04/05 09:32:59;;;;;;;2.08;0.98;;;8.90;99.90;;;;;;5094197;28;20040;-84
2022/04/05 09:35:29;;;;;;;2.80;0.90;;;8.90;99.90;;;;;;5113224;28;20540;-84
2022/04/05 09:38:11;;;;;;;2.72;0.90;;;8.90;99.90;;;;;;5113175;28;20126;-84
2022/04/05 09:40:38;;;;;;;3.90;1.13;;;8.90;99.90;;;;;;5111904;28;20100;-83
2022/04/05 09:43:16;;;;;;;1.75;0.75;;;8.90;99.90;;;;;;5094425;28;20043;-83
2022/04/05 09:46:00;;;;;;;0.65;0.60;;;8.90;99.90;;;;;;5094704;28;20055;-83
2022/04/05 09:48:29;;;;;;;3.58;0.90;;;8.90;99.90;;;;;;5092187;28;20052;-84
2022/04/05 09:51:02;;;;;;;0.88;0.60;;;8.90;99.90;;;;;;5103534;28;20079;-83
2022/04/05 09:53:52;;;;;;;2.20;0.60;;;8.90;99.90;;;;;;5094284;28;20070;-83
2022/04/05 09:56:19;;;;;;;1.75;0.50;;;8.90;99.90;;;;;;5094634;28;20048;-84
2022/04/05 09:58:48;;;;;;;1.33;0.50;;;8.90;99.90;;;;;;5093861;28;20055;-84
2022/04/05 10:01:16;;;;;;;0.73;0.50;;;9.00;99.90;;;;;;5108961;28;20035;-84
2022/04/05 10:03:46;;;;;;;3.10;0.47;;;9.00;99.90;;;;;;5098191;28;20177;-84
2022/04/05 10:06:12;;;;;;;1.48;0.50;;;9.00;99.90;;;;;;5081754;28;20093;-84
2022/04/05 10:08:39;;;;;;;0.68;0.60;;;9.10;99.90;;;;;;5097141;28;20039;-84
2022/04/05 10:11:05;;;;;;;1.45;0.70;;;9.20;99.90;;;;;;5116809;28;20383;-84
2022/04/05 10:13:32;;;;;;;0.77;0.50;;;9.30;99.90;;;;;;5081036;28;20054;-84
2022/04/05 10:16:00;;;;;;;1.92;0.63;;;9.30;99.90;;;;;;5115804;28;20039;-84
2022/04/05 10:18:33;;;;;;;1.08;0.50;;;9.30;99.90;;;;;;5097921;28;20050;-84
2022/04/05 10:21:01;;;;;;;1.10;0.65;;;9.40;99.90;;;;;;5098407;28;20459;-84
2022/04/05 10:23:28;;;;;;;0.55;0.52;;;9.40;99.90;;;;;;5115536;28;20039;-84
2022/04/05 10:25:54;;;;;;;0.90;0.73;;;9.50;99.90;;;;;;5098398;28;20055;-84
2022/04/05 10:28:25;;;;;;;0.60;0.60;;;9.50;99.90;;;;;;5116147;28;20035;-84
2022/04/05 10:31:10;;;;;;;0.60;0.60;;;9.60;99.90;;;;;;5096798;28;20058;-84
2022/04/05 10:33:49;;;;;;;0.95;0.75;;;9.60;99.90;;;;;;5116226;28;20071;-84
2022/04/05 10:36:22;;;;;;;0.82;0.70;;;9.70;99.90;;;;;;5115392;28;20040;-84
2022/04/05 10:39:18;;;;;;;0.75;0.60;;;9.70;99.90;;;;;;5097711;28;20443;-84
2022/04/05 10:42:04;;;;;;;1.15;0.90;;;9.70;99.90;;;;;;5115950;28;20095;-84
2022/04/05 10:44:30;;;;;;;1.88;0.95;;;9.70;99.90;;;;;;5114802;28;20467;-84
2022/04/05 10:47:01;;;;;;;1.25;0.90;;;9.70;99.90;;;;;;5115555;28;20154;-84
2022/04/05 10:49:35;;;;;;;1.10;1.05;;;9.80;99.90;;;;;;5096724;28;20065;-84
2022/04/05 10:52:17;;;;;;;1.58;1.08;;;10.10;99.90;;;;;;5077241;28;20044;-85
2022/04/05 10:54:51;;;;;;;1.30;1.13;;;10.30;99.90;;;;;;5088965;28;20047;-84
2022/04/05 10:57:31;;;;;;;1.17;1.00;;;10.50;99.90;;;;;;5114928;28;20044;-84
2022/04/05 11:00:07;;;;;;;0.98;0.93;;;10.90;99.90;;;;;;5110878;28;20293;-83
2022/04/05 11:02:36;;;;;;;0.90;0.90;;;11.10;99.90;;;;;;5115606;28;20050;-83
2022/04/05 11:05:27;;;;;;;0.90;0.88;;;11.30;99.90;;;;;;5096551;28;20048;-83
2022/04/05 11:08:02;;;;;;;1.15;1.05;;;11.20;99.90;;;;;;5097337;28;20082;-83
2022/04/05 11:10:37;;;;;;;1.08;1.00;;;11.00;99.90;;;;;;5097212;28;20052;-83
2022/04/05 11:13:06;;;;;;;1.10;1.00;;;11.00;99.90;;;;;;5114532;28;20043;-84
2022/04/05 11:15:42;;;;;;;1.55;1.35;;;11.10;99.90;;;;;;5097039;28;20051;-83
2022/04/05 11:18:13;;;;;;;1.00;1.00;;;11.20;99.90;;;;;;5095892;28;20043;-82
2022/04/05 11:20:44;;;;;;;1.20;1.10;;;11.10;99.90;;;;;;5114942;28;20092;-83
2022/04/05 11:23:11;;;;;;;1.88;1.45;;;11.00;99.90;;;;;;5096826;28;20494;-83
2022/04/05 11:25:37;;;;;;;1.40;1.27;;;11.00;99.90;;;;;;5114394;28;20122;-82
2022/04/05 11:28:15;;;;;;;3.00;1.60;;;11.10;99.90;;;;;;5114846;28;20055;-82
2022/04/05 11:30:54;;;;;;;1.48;1.38;;;11.00;99.90;;;;;;5114964;28;20478;-83
2022/04/05 11:33:34;;;;;;;1.40;1.27;;;11.00;99.90;;;;;;5095722;28;20047;-82
2022/04/05 11:36:01;;;;;;;2.08;1.88;;;11.00;99.90;;;;;;5097019;28;20048;-83
2022/04/05 11:38:28;;;;;;;1.52;1.42;;;11.00;99.90;;;;;;5114614;28;20047;-81
2022/04/05 11:41:17;;;;;;;1.73;1.63;;;11.00;99.90;;;;;;5096126;28;20051;-82
2022/04/05 11:43:46;;;;;;;1.98;1.77;;;11.00;99.90;;;;;;5114736;28;20123;-82
2022/04/05 11:46:18;;;;;;;2.25;2.05;;;11.00;99.90;;;;;;5113958;28;20510;-84
2022/04/05 11:48:50;;;;;;;2.25;2.05;;;11.00;99.90;;;;;;5114322;28;20047;-82
2022/04/05 11:51:18;;;;;;;2.75;2.30;;;11.00;99.90;;;;;;5110570;28;20047;-83
2022/04/05 11:53:46;;;;;;;2.40;2.20;;;11.10;99.90;;;;;;5094215;28;20044;-83
2022/04/05 11:56:24;;;;;;;2.83;2.50;;;11.10;99.90;;;;;;5096173;28;20047;-82
2022/04/05 11:58:52;;;;;;;3.40;2.65;;;11.10;99.90;;;;;;5114607;28;20376;-81
2022/04/05 12:01:25;;;;;;;3.70;2.58;;;11.10;99.90;;;;;;5113494;28;20044;-82
2022/04/05 12:03:57;;;;;;;4.13;3.10;;;11.10;99.90;;;;;;5096517;28;20047;-83
2022/04/05 12:06:29;;;;;;;3.08;2.78;;;11.00;99.90;;;;;;5096050;28;20419;-82
2022/04/05 12:08:57;;;;;;;3.17;2.90;;;11.00;99.90;;;;;;5095184;28;20560;-83
2022/04/05 12:11:25;;;;;;;4.20;3.22;;;11.00;99.90;;;;;;5095822;28;20044;-82
2022/04/05 12:14:00;;;;;;;3.55;3.10;;;11.00;99.90;;;;;;5114514;28;20087;-83
2022/04/05 12:16:29;;;;;;;6.82;4.25;;;10.90;99.90;;;;;;5113505;28;20398;-82
2022/04/05 12:18:57;;;;;;;4.20;3.80;;;10.90;99.90;;;;;;5113955;28;20108;-82
2022/04/05 12:21:26;;;;;;;5.53;3.47;;;11.00;99.90;;;;;;5112798;28;20048;-82
2022/04/05 12:23:56;;;;;;;4.80;3.25;;;11.10;99.90;;;;;;5078750;28;20043;-82
2022/04/05 12:26:24;;;;;;;5.60;3.85;;;11.20;99.90;;;;;;5114030;28;20055;-83
2022/04/05 12:28:59;;;;;;;5.65;3.75;;;11.30;99.90;;;;;;5095119;28;20513;-82
2022/04/05 12:31:29;;;;;;;5.53;3.78;;;11.20;99.90;;;;;;5095746;28;20071;-83
2022/04/05 12:33:58;;;;;;;4.90;3.42;;;11.20;99.90;;;;;;5113905;28;20185;-82
2022/04/05 12:36:33;;;;;;;6.57;3.90;;;11.20;99.90;;;;;;5094897;28;20047;-81
2022/04/05 12:38:59;;;;;;;;;;;11.00;99.90;;;;;;5114263;28;20040;-83
2022/04/05 12:41:28;;;;;;;9.02;3.38;;;10.90;99.90;;;;;;5113653;28;19924;-82
2022/04/05 12:44:14;;;;;;;6.93;3.30;;;10.90;99.90;;;;;;5113054;28;20043;-81
2022/04/05 12:47:14;;;;;;;5.00;3.08;;;10.80;99.90;;;;;;5113738;28;20052;-82
2022/04/05 12:49:45;;;;;;;7.55;3.45;;;10.70;99.90;;;;;;5111655;28;20051;-83
2022/04/05 12:52:13;;;;;;;8.73;4.00;;;10.60;99.90;;;;;;5113814;28;20525;-83
2022/04/05 12:54:52;;;;;;;11.38;3.88;;;10.60;99.90;;;;;;5094619;28;20044;-82
2022/04/05 12:57:29;;;;;;;11.77;4.70;;;10.40;99.90;;;;;;5113035;28;20068;-80
2022/04/05 13:00:17;;;;;;;10.55;4.65;;;10.40;99.90;;;;;;5095709;28;20402;-83